To NAV CANADA Home Page Login to a new session Search on AWWS site Feedback and Comments Disclaimer Vers la page française équivalente Tips FAQ What's new on the site To the Forecasts and Observations / NOTAM section To "File a Flight Plan" website Publications and other links Update of the User's profile FIC Telephone Numbers My Weather Data Folder Route Weather Data Regional Weather Data Local Weather Data To the Forecasts and Observations / NOTAM section
Request Generated 03/23/2017 at 00:20:51 UTC . Weather information available at that time is displayed.

METAR/TAF

MONCTON/GREATER MONCTON INTL/NB    

METAR CYQM 230000Z 32025G32KT 10SM -SN OVC015 M04/M06 A2964 RMK SC8
SLP041=
METAR CYQM 222300Z 31017G26KT 10SM -SN SCT011 BKN042 M02/M03 A2960
RMK SF3SC4 SLP029=
METAR CYQM 222200Z 33016G21KT 8SM -SN BKN008 BKN047 M00/M01 A2958 RMK
SF5SC2 SLP022=

TAF CYQM 222338Z 2300/2324 33020G30KT 6SM -SN SCT008 OVC040 TEMPO
2300/2302 11/2SM -SN BLSN VV008
FM230200 33020G30KT 11/2SM -SN BLSN OVC015 TEMPO 2302/2308 3SM
-SN PROB30 2302/2306 3/4SM -SN BLSN VV008
FM230800 32020G30KT 5SM -SN BLSN OVC025
FM231100 31015G25KT P6SM BKN025
FM231400 31012G22KT P6SM SCT025
BECMG 2322/2324 30010KT
RMK NXT FCST BY 230600Z=
Your time UTC time
Weather data provided by Environment Canada and NAV CANADA